Time;durP1;ratioP1;P1;durP2;ratioP2;P2;SDS_P1;SDS_P2;PMS_P1;PMS_P2;Temp;Humidity;BMP_temperature;BMP_pressure;BME280_temperature;BME280_humidity;BME280_pressure;Samples;Min_cycle;Max_cycle;Signal;HPM_P1;HPM_P2
2022/01/30 00:01:17;;;;;;;;;;;4.50;99.90;;;;;;5094108;28;19924;-51
2022/01/30 00:03:44;;;;;;;;;;;4.30;99.90;;;;;;5078732;28;19925;-52
2022/01/30 00:06:11;;;;;;;;;;;4.40;99.90;;;;;;5135913;22;19923;-49
2022/01/30 00:08:37;;;;;;;;;;;4.40;99.90;;;;;;5126259;27;19927;-48
2022/01/30 00:11:12;;;;;;;;;;;4.20;99.90;;;;;;5111898;28;19924;-49
2022/01/30 00:13:40;;;;;;;;;;;4.20;99.90;;;;;;5111432;28;20545;-50
2022/01/30 00:16:09;;;;;;;;;;;4.30;99.90;;;;;;5129084;27;19923;-49
2022/01/30 00:18:52;;;;;;;;;;;4.30;99.90;;;;;;5131129;27;20292;-49
2022/01/30 00:21:31;;;;;;;;;;;4.40;99.90;;;;;;5112240;28;19999;-49
2022/01/30 00:24:02;;;;;;;;;;;4.30;99.90;;;;;;5111623;28;19924;-48
2022/01/30 00:26:31;;;;;;;;;;;4.20;99.90;;;;;;5111990;28;19985;-49
2022/01/30 00:28:59;;;;;;;;;;;4.40;99.90;;;;;;5111691;28;19924;-48
2022/01/30 00:31:27;;;;;;;;;;;4.40;99.90;;;;;;5111938;28;19924;-49
2022/01/30 00:33:54;;;;;;;;;;;4.40;99.90;;;;;;5111753;28;19970;-49
2022/01/30 00:36:21;;;;;;;;;;;4.40;99.90;;;;;;5111867;28;19973;-49
2022/01/30 00:38:48;;;;;;;;;;;4.40;99.90;;;;;;5111316;28;19927;-49
2022/01/30 00:41:14;;;;;;;;;;;4.50;99.90;;;;;;5115732;28;20342;-49
2022/01/30 00:43:41;;;;;;;;;;;4.50;99.90;;;;;;5132184;28;20005;-49
2022/01/30 00:46:09;;;;;;;;;;;4.60;99.90;;;;;;5132234;28;19927;-50
2022/01/30 00:48:36;;;;;;;;;;;4.70;99.90;;;;;;5111426;28;19977;-49
2022/01/30 00:51:03;;;;;;;;;;;4.50;99.90;;;;;;5111836;28;19976;-48
2022/01/30 00:53:29;;;;;;;;;;;4.50;99.90;;;;;;5111440;28;19924;-49
2022/01/30 00:55:56;;;;;;;;;;;4.50;99.90;;;;;;5111216;28;19923;-50
2022/01/30 00:58:23;;;;;;;;;;;4.50;99.90;;;;;;5111431;28;19928;-49
2022/01/30 01:00:50;;;;;;;;;;;4.50;99.90;;;;;;5111747;28;19928;-49
2022/01/30 01:03:18;;;;;;;;;;;4.70;99.90;;;;;;5111463;28;19985;-49
2022/01/30 01:05:45;;;;;;;;;;;4.80;99.90;;;;;;5120260;28;20442;-48
2022/01/30 01:08:20;;;;;;;;;;;4.90;99.90;;;;;;5131965;28;20289;-49
2022/01/30 01:10:51;;;;;;;;;;;4.80;99.90;;;;;;5132042;28;19934;-48
2022/01/30 01:13:48;;;;;;;;;;;4.80;99.90;;;;;;5111238;28;19928;-48
2022/01/30 01:24:28;;;;;;;;;;;4.70;99.90;;;;;;5111546;28;19926;-49
2022/01/30 01:26:55;;;;;;;;;;;4.60;99.90;;;;;;5114193;27;19980;-50
2022/01/30 01:29:21;;;;;;;;;;;4.60;99.90;;;;;;5114479;28;20397;-49
2022/01/30 01:31:48;;;;;;;;;;;4.50;99.90;;;;;;5114409;28;19924;-49
2022/01/30 01:34:31;;;;;;;;;;;4.40;99.90;;;;;;5114239;28;19932;-49
2022/01/30 01:36:58;;;;;;;;;;;4.40;99.90;;;;;;5122356;27;19977;-49
2022/01/30 01:39:26;;;;;;;;;;;4.50;99.90;;;;;;5135181;27;19963;-50
2022/01/30 01:41:52;;;;;;;;;;;4.50;99.90;;;;;;5135169;27;20342;-48
2022/01/30 01:44:23;;;;;;;;;;;4.50;99.90;;;;;;5117667;27;20393;-49
2022/01/30 01:46:49;;;;;;;;;;;4.50;99.90;;;;;;5114770;28;19967;-48
2022/01/30 01:49:24;;;;;;;;;;;4.60;99.90;;;;;;5114739;28;19923;-49
2022/01/30 01:52:03;;;;;;;;;;;4.70;99.90;;;;;;5114852;28;19954;-49
2022/01/30 01:54:30;;;;;;;;;;;4.70;99.90;;;;;;5114260;28;20011;-48
2022/01/30 01:56:57;;;;;;;;;;;4.70;99.90;;;;;;5114702;27;19928;-49
2022/01/30 01:59:24;;;;;;;;;;;4.60;99.90;;;;;;5114260;28;20442;-49
2022/01/30 02:01:53;;;;;;;;;;;4.50;99.90;;;;;;5113935;28;20024;-50
2022/01/30 02:04:21;;;;;;;;;;;4.60;99.90;;;;;;5114362;28;20014;-48
2022/01/30 02:06:48;;;;;;;;;;;4.70;99.90;;;;;;5114550;28;19923;-49
2022/01/30 02:09:14;;;;;;;;;;;4.80;99.90;;;;;;5121213;27;19928;-48
2022/01/30 02:11:44;;;;;;;;;;;4.70;99.90;;;;;;5114826;28;19924;-49
2022/01/30 02:25:25;;;;;;;;;;;4.40;99.90;;;;;;5114067;28;19930;-48
2022/01/30 02:27:56;;;;;;;;;;;4.40;99.90;;;;;;5113858;28;19930;-49
2022/01/30 02:30:25;;;;;;;;;;;4.40;99.90;;;;;;5093505;28;19928;-49
2022/01/30 02:32:54;;;;;;;;;;;4.40;99.90;;;;;;5093442;28;20527;-49
2022/01/30 02:35:20;;;;;;;;;;;4.30;99.90;;;;;;5108408;28;19924;-49
2022/01/30 02:37:52;;;;;;;;;;;4.30;99.90;;;;;;5113475;28;19928;-49
2022/01/30 02:40:19;;;;;;;;;;;4.30;99.90;;;;;;5113954;27;20010;-49
2022/01/30 02:42:49;;;;;;;;;;;4.40;99.90;;;;;;5113750;28;19928;-49
2022/01/30 02:45:18;;;;;;;;;;;4.40;99.90;;;;;;5113676;28;19969;-49
2022/01/30 02:47:56;;;;;;;;;;;4.30;99.90;;;;;;5113218;28;19937;-48
2022/01/30 02:50:34;;;;;;;;;;;4.30;99.90;;;;;;5128247;27;19923;-49
2022/01/30 02:53:05;;;;;;;;;;;4.30;99.90;;;;;;5133246;27;19923;-49
2022/01/30 02:55:32;;;;;;;;;;;4.30;99.90;;;;;;5134287;27;19924;-49
2022/01/30 02:57:58;;;;;;;;;;;4.30;99.90;;;;;;5133882;27;19932;-49
2022/01/30 03:00:25;;;;;;;;;;;4.20;99.90;;;;;;5120931;27;19989;-48
2022/01/30 03:02:52;;;;;;;;;;;4.20;99.90;;;;;;5113086;28;20338;-49
2022/01/30 03:05:19;;;;;;;;;;;4.30;99.90;;;;;;5113176;28;19923;-50
2022/01/30 03:07:46;;;;;;;;;;;4.40;99.90;;;;;;5113067;28;19999;-49
2022/01/30 03:10:14;;;;;;;;;;;4.50;99.90;;;;;;5118960;27;19976;-49
2022/01/30 03:12:41;;;;;;;;;;;4.40;99.90;;;;;;5133816;27;20014;-48
2022/01/30 03:15:08;;;;;;;;;;;4.40;99.90;;;;;;5123200;27;19924;-49
2022/01/30 03:17:35;;;;;;;;;;;4.30;99.90;;;;;;5110628;28;19923;-49
2022/01/30 03:20:03;;;;;;;;;;;4.30;99.90;;;;;;5112736;27;19927;-50
2022/01/30 03:22:29;;;;;;;;;;;4.30;99.90;;;;;;5112683;28;19924;-49
2022/01/30 03:24:56;;;;;;;;;;;4.40;99.90;;;;;;5113106;28;19923;-49
2022/01/30 03:27:25;;;;;;;;;;;4.30;99.90;;;;;;5095673;27;20523;-49
2022/01/30 03:30:02;;;;;;;;;;;4.40;99.90;;;;;;5092126;28;20398;-48
2022/01/30 03:32:29;;;;;;;;;;;4.30;99.90;;;;;;5104658;28;19927;-48
2022/01/30 03:34:56;;;;;;;;;;;4.30;99.90;;;;;;5112572;28;20446;-49
2022/01/30 03:37:23;;;;;;;;;;;4.50;99.90;;;;;;5114720;27;19968;-48
2022/01/30 03:39:49;;;;;;;;;;;4.40;99.90;;;;;;5114768;27;19928;-47
2022/01/30 03:42:16;;;;;;;;;;;4.40;99.90;;;;;;5112699;28;20004;-48
2022/01/30 03:44:44;;;;;;;;;;;4.50;99.90;;;;;;5112669;28;19923;-49
2022/01/30 03:47:11;;;;;;;;;;;4.40;99.90;;;;;;5112629;28;20371;-49
2022/01/30 03:49:39;;;;;;;;;;;4.30;99.90;;;;;;5111429;28;19976;-50
2022/01/30 03:52:06;;;;;;;;;;;4.30;99.90;;;;;;5112513;28;20444;-49
2022/01/30 03:54:33;;;;;;;;;;;4.20;99.90;;;;;;5112505;28;19924;-49
2022/01/30 03:57:00;;;;;;;;;;;4.20;99.90;;;;;;5112861;28;20278;-48
2022/01/30 03:59:27;;;;;;;;;;;4.10;99.90;;;;;;5112220;28;19924;-48
2022/01/30 04:01:55;;;;;;;;;;;4.10;99.90;;;;;;5112273;28;20386;-48
2022/01/30 04:04:22;;;;;;;;;;;4.20;99.90;;;;;;5112261;28;19924;-50
2022/01/30 04:06:50;;;;;;;;;;;4.20;99.90;;;;;;5112599;28;19924;-48
2022/01/30 04:09:19;;;;;;;;;;;4.10;99.90;;;;;;5111107;28;20209;-49
2022/01/30 04:11:46;;;;;;;;;;;4.10;99.90;;;;;;5112634;28;19932;-49
2022/01/30 04:14:13;;;;;;;;;;;3.90;99.90;;;;;;5111891;28;19924;-46
2022/01/30 04:16:40;;;;;;;;;;;3.80;99.90;;;;;;5112779;28;19923;-49
2022/01/30 04:19:08;;;;;;;;;;;3.70;99.90;;;;;;5111913;28;19924;-48
2022/01/30 04:21:35;;;;;;;;;;;3.70;99.90;;;;;;5111986;28;19928;-48
2022/01/30 04:24:02;;;;;;;;;;;3.80;99.90;;;;;;5112237;28;19977;-48
2022/01/30 04:26:29;;;;;;;;;;;3.80;99.90;;;;;;5112155;28;20339;-48
2022/01/30 04:28:56;;;;;;;;;;;3.80;99.90;;;;;;5111427;28;19931;-48
2022/01/30 04:31:23;;;;;;;;;;;3.90;99.90;;;;;;5112026;28;19924;-47
2022/01/30 04:33:50;;;;;;;;;;;3.90;99.90;;;;;;5112172;28;19976;-48
2022/01/30 04:36:23;;;;;;;;;;;4.00;99.90;;;;;;5112257;28;19992;-48
2022/01/30 04:38:59;;;;;;;;;;;3.90;99.90;;;;;;5111744;28;19963;-49
2022/01/30 04:53:08;;;;;;;;;;;4.00;99.90;;;;;;5109566;28;20118;-49
2022/01/30 04:56:15;;;;;;;;;;;4.10;99.90;;;;;;5109230;28;20397;-49
2022/01/30 04:58:47;;;;;;;;;;;4.00;99.90;;;;;;5108930;28;19919;-49
2022/01/30 05:01:20;;;;;;;;;;;4.10;99.90;;;;;;5111507;28;19931;-49
2022/01/30 05:03:58;;;;;;;;;;;3.80;99.90;;;;;;5108668;28;19924;-49
2022/01/30 05:06:34;;;;;;;;;;;3.70;99.90;;;;;;5109457;28;19924;-49
2022/01/30 05:09:01;;;;;;;;;;;3.70;99.90;;;;;;5108847;28;19977;-49
2022/01/30 05:11:27;;;;;;;;;;;3.60;99.90;;;;;;5108986;28;19924;-49
2022/01/30 05:13:55;;;;;;;;;;;3.70;99.90;;;;;;5116734;28;19977;-50
2022/01/30 05:16:23;;;;;;;;;;;3.60;99.90;;;;;;5125549;27;19967;-49
2022/01/30 05:18:51;;;;;;;;;;;3.60;99.90;;;;;;5108664;28;19924;-49
2022/01/30 05:21:19;;;;;;;;;;;3.60;99.90;;;;;;5109157;28;19928;-49
2022/01/30 05:23:46;;;;;;;;;;;3.60;99.90;;;;;;5109008;28;19924;-48
2022/01/30 05:26:14;;;;;;;;;;;3.70;99.90;;;;;;5107642;28;19924;-49
2022/01/30 05:28:41;;;;;;;;;;;3.80;99.90;;;;;;5107176;28;19929;-50
2022/01/30 05:31:08;;;;;;;;;;;4.00;99.90;;;;;;5109235;28;19928;-49
2022/01/30 05:33:38;;;;;;;;;;;4.00;99.90;;;;;;5107321;28;20401;-50
2022/01/30 05:36:06;;;;;;;;;;;3.90;99.90;;;;;;5103773;28;19931;-49
2022/01/30 05:38:33;;;;;;;;;;;3.90;99.90;;;;;;5107131;28;19924;-50
2022/01/30 05:41:00;;;;;;;;;;;4.00;99.90;;;;;;5107513;28;19928;-50
2022/01/30 05:43:30;;;;;;;;;;;3.90;99.90;;;;;;5107606;28;19928;-52
2022/01/30 05:46:07;;;;;;;;;;;3.90;99.90;;;;;;5106762;28;20438;-50
2022/01/30 05:48:34;;;;;;;;;;;3.90;99.90;;;;;;5107223;28;19924;-50
2022/01/30 05:51:02;;;;;;;;;;;4.00;99.90;;;;;;5107140;28;19928;-51
2022/01/30 05:53:29;;;;;;;;;;;4.20;99.90;;;;;;5106598;28;19970;-50
2022/01/30 05:55:56;;;;;;;;;;;4.40;99.90;;;;;;5093009;28;19925;-50
2022/01/30 05:58:22;;;;;;;;;;;4.40;99.90;;;;;;5093067;28;19981;-52
2022/01/30 06:00:49;;;;;;;;;;;4.40;99.90;;;;;;5096674;28;20369;-50
2022/01/30 06:03:16;;;;;;;;;;;4.60;99.90;;;;;;5093455;28;19924;-50
2022/01/30 06:05:45;;;;;;;;;;;4.70;99.90;;;;;;5093702;28;19931;-49
2022/01/30 06:08:37;;;;;;;;;;;4.70;99.90;;;;;;5090314;28;19932;-49
2022/01/30 06:11:03;;;;;;;;;;;4.60;99.90;;;;;;5090990;28;19931;-49
2022/01/30 06:13:29;;;;;;;;;;;4.60;99.90;;;;;;5092280;28;19978;-49
2022/01/30 06:15:56;;;;;;;;;;;4.30;99.90;;;;;;5090522;28;19924;-48
2022/01/30 06:18:23;;;;;;;;;;;4.20;99.90;;;;;;5092435;28;19924;-49
2022/01/30 06:20:50;;;;;;;;;;;4.20;99.90;;;;;;5095158;28;20435;-49
2022/01/30 06:23:26;;;;;;;;;;;4.10;99.90;;;;;;5093095;28;20011;-49
2022/01/30 06:25:52;;;;;;;;;;;4.00;99.90;;;;;;5092656;28;19950;-49
2022/01/30 06:28:19;;;;;;;;;;;4.10;99.90;;;;;;5090434;28;19924;-49
2022/01/30 06:30:46;;;;;;;;;;;4.10;99.90;;;;;;5085057;28;19939;-49
2022/01/30 06:33:14;;;;;;;;;;;4.00;99.90;;;;;;5091067;28;19924;-50
2022/01/30 06:35:41;;;;;;;;;;;3.90;99.90;;;;;;5091970;28;19924;-50
2022/01/30 06:38:07;;;;;;;;;;;4.00;99.90;;;;;;5092248;28;19978;-49
2022/01/30 06:40:35;;;;;;;;;;;4.10;99.90;;;;;;5091577;28;20266;-49
2022/01/30 06:43:02;;;;;;;;;;;4.10;99.90;;;;;;5092174;28;19932;-50
2022/01/30 06:45:29;;;;;;;;;;;4.00;99.90;;;;;;5092508;28;19924;-50
2022/01/30 06:47:56;;;;;;;;;;;4.00;99.90;;;;;;5092057;28;20348;-49
2022/01/30 06:50:24;;;;;;;;;;;4.10;99.90;;;;;;5091681;28;19985;-50
2022/01/30 06:52:50;;;;;;;;;;;4.10;99.90;;;;;;5090741;28;20386;-48
2022/01/30 06:55:17;;;;;;;;;;;4.30;99.90;;;;;;5091362;28;19924;-49
2022/01/30 06:57:46;;;;;;;;;;;4.40;99.90;;;;;;5092238;28;19928;-49
2022/01/30 07:00:13;;;;;;;;;;;4.40;99.90;;;;;;5091629;28;19932;-49
2022/01/30 07:02:40;;;;;;;;;;;4.40;99.90;;;;;;5090559;28;19932;-49
2022/01/30 07:05:07;;;;;;;;;;;4.20;99.90;;;;;;5088767;28;19928;-50
2022/01/30 07:07:34;;;;;;;;;;;4.10;99.90;;;;;;5091526;28;20083;-48
2022/01/30 07:10:01;;;;;;;;;;;4.10;99.90;;;;;;5090835;28;19993;-50
2022/01/30 07:12:28;;;;;;;;;;;4.00;99.90;;;;;;5090233;28;20390;-50
2022/01/30 07:14:56;;;;;;;;;;;4.00;99.90;;;;;;5090037;28;19928;-49
2022/01/30 07:17:23;;;;;;;;;;;4.00;99.90;;;;;;5091890;28;19932;-49
2022/01/30 07:19:50;;;;;;;;;;;4.10;99.90;;;;;;5091431;28;19928;-50
2022/01/30 07:22:16;;;;;;;;;;;4.30;99.90;;;;;;5092973;28;20043;-52
2022/01/30 07:24:43;;;;;;;;;;;4.40;99.90;;;;;;5089208;28;19932;-50
2022/01/30 07:27:10;;;;;;;;;;;4.50;99.90;;;;;;5089459;28;19928;-51
2022/01/30 07:29:37;;;;;;;;;;;4.40;99.90;;;;;;5090599;28;20472;-52
2022/01/30 07:32:06;;;;;;;;;;;4.50;99.90;;;;;;5091580;28;19931;-50
2022/01/30 07:34:32;;;;;;;;;;;4.50;99.90;;;;;;5090223;28;19924;-51
2022/01/30 07:36:59;;;;;;;;;;;4.50;99.90;;;;;;5091215;28;20340;-50
2022/01/30 07:39:29;;;;;;;;;;;4.50;99.90;;;;;;5091110;28;19971;-50
2022/01/30 07:41:56;;;;;;;;;;;4.50;99.90;;;;;;5097305;28;19924;-50
2022/01/30 07:44:23;;;;;;;;;;;4.70;99.90;;;;;;5091434;28;19981;-51
2022/01/30 07:46:50;;;;;;;;;;;4.70;99.90;;;;;;5091057;28;19928;-51
2022/01/30 07:49:18;;;;;;;;;;;4.80;99.90;;;;;;5091222;28;19993;-53
2022/01/30 07:51:45;;;;;;;;;;;4.80;99.90;;;;;;5091450;28;19924;-51
2022/01/30 07:54:12;;;;;;;;;;;4.80;99.90;;;;;;5091182;28;19928;-51
2022/01/30 07:56:39;;;;;;;;;;;5.00;99.90;;;;;;5091268;28;19924;-51
2022/01/30 07:59:06;;;;;;;;;;;5.20;99.90;;;;;;5090852;28;19924;-51
2022/01/30 08:01:32;;;;;;;;;;;5.30;99.90;;;;;;5093168;28;20522;-50
2022/01/30 08:04:00;;;;;;;;;;;5.30;99.90;;;;;;5090828;28;20432;-53
2022/01/30 08:06:28;;;;;;;;;;;5.50;99.90;;;;;;5091550;28;19924;-50
2022/01/30 08:08:55;;;;;;;;;;;5.60;99.90;;;;;;5091656;28;19947;-52
2022/01/30 08:11:25;;;;;;;;;;;5.40;99.90;;;;;;5110929;22;19992;-52
2022/01/30 08:13:51;;;;;;;;;;;5.40;99.90;;;;;;5050674;28;19944;-52
2022/01/30 08:16:20;;;;;;;;;;;5.70;99.90;;;;;;5035682;28;19924;-52
2022/01/30 08:18:47;;;;;;;;;;;5.70;99.90;;;;;;5053837;28;19929;-52
2022/01/30 08:21:13;;;;;;;;;;;5.70;99.90;;;;;;5047131;28;20362;-54
2022/01/30 08:23:41;;;;;;;;;;;5.90;99.90;;;;;;5052755;28;19951;-52
2022/01/30 08:26:08;;;;;;;;;;;5.80;99.90;;;;;;5039744;28;19932;-53
2022/01/30 08:28:35;;;;;;;;;;;5.70;99.90;;;;;;5058685;28;19925;-52
2022/01/30 08:31:02;;;;;;;;;;;5.50;99.90;;;;;;5052002;28;19924;-51
2022/01/30 08:33:28;;;;;;;;;;;5.50;99.90;;;;;;5052943;28;19925;-52
2022/01/30 08:35:55;;;;;;;;;;;5.50;99.90;;;;;;5052991;28;19979;-52
2022/01/30 08:38:22;;;;;;;;;;;5.70;99.90;;;;;;5053389;28;19994;-52
2022/01/30 08:40:50;;;;;;;;;;;5.90;99.90;;;;;;5052835;28;20391;-52
2022/01/30 08:43:21;;;;;;;;;;;6.10;99.90;;;;;;5052538;28;19925;-53
2022/01/30 08:45:48;;;;;;;;;;;6.20;99.90;;;;;;5045209;28;19983;-53
2022/01/30 08:48:16;;;;;;;;;;;6.30;99.90;;;;;;5034433;28;20281;-53
2022/01/30 08:50:43;;;;;;;;;;;6.40;99.90;;;;;;5033745;28;20395;-53
2022/01/30 08:53:12;;;;;;;;;;;6.70;99.90;;;;;;5033166;28;19925;-53
2022/01/30 08:55:39;;;;;;;;;;;7.10;99.90;;;;;;5053235;28;19994;-53
2022/01/30 08:58:09;;;;;;;;;;;7.50;99.90;;;;;;5050709;28;19925;-53
2022/01/30 09:00:36;;;;;;;;;;;7.70;99.90;;;;;;5033849;28;19985;-53
2022/01/30 09:03:03;;;;;;;;;;;7.70;99.90;;;;;;5032866;28;20003;-53
2022/01/30 09:05:30;;;;;;;;;;;7.80;99.90;;;;;;5037649;28;20011;-52
2022/01/30 09:07:57;;;;;;;;;;;8.00;99.90;;;;;;5033036;28;20015;-53
2022/01/30 09:10:24;;;;;;;;;;;7.90;99.90;;;;;;5052240;28;19924;-52
2022/01/30 09:12:51;;;;;;;;;;;7.80;99.90;;;;;;5041374;28;19928;-52
2022/01/30 09:15:19;;;;;;;;;;;7.60;99.90;;;;;;5046139;28;19929;-52
2022/01/30 09:17:46;;;;;;;;;;;7.50;99.90;;;;;;5042578;28;20416;-52
2022/01/30 09:20:13;;;;;;;;;;;7.30;99.90;;;;;;5043207;28;19959;-52
2022/01/30 09:22:39;;;;;;;;;;;7.10;99.90;;;;;;5049367;28;19925;-52
2022/01/30 09:25:07;;;;;;;;;;;7.20;99.90;;;;;;5048052;28;20460;-52
2022/01/30 09:27:34;;;;;;;;;;;7.30;99.90;;;;;;5033004;28;19925;-53
2022/01/30 09:30:00;;;;;;;;;;;7.40;99.90;;;;;;5035407;28;19925;-52
2022/01/30 09:32:28;;;;;;;;;;;7.60;99.90;;;;;;5037743;28;19925;-52
2022/01/30 09:34:56;;;;;;;;;;;7.70;99.90;;;;;;5039823;28;19924;-52
2022/01/30 09:37:23;;;;;;;;;;;8.10;99.90;;;;;;5055452;28;19925;-52
2022/01/30 09:39:50;;;;;;;;;;;8.40;99.90;;;;;;5056748;28;19979;-52
2022/01/30 09:42:17;;;;;;;;;;;8.50;99.90;;;;;;5056792;28;19924;-52
2022/01/30 09:44:44;;;;;;;;;;;8.60;99.90;;;;;;5040506;28;19972;-52
2022/01/30 09:47:12;;;;;;;;;;;8.60;99.90;;;;;;5037449;28;19925;-52
2022/01/30 09:49:41;;;;;;;;;;;8.50;99.90;;;;;;5038927;28;19936;-52
2022/01/30 09:52:08;;;;;;;;;;;8.30;99.90;;;;;;5053085;28;20528;-53
2022/01/30 09:54:35;;;;;;;;;;;8.00;99.90;;;;;;5053384;28;19933;-53
2022/01/30 09:57:02;;;;;;;;;;;7.90;99.90;;;;;;5055799;28;19933;-53
2022/01/30 09:59:28;;;;;;;;;;;8.00;99.90;;;;;;5055433;28;20395;-52
2022/01/30 10:01:55;;;;;;;;;;;7.90;99.90;;;;;;5052538;28;19924;-53
2022/01/30 10:04:22;;;;;;;;;;;8.00;99.90;;;;;;5049903;28;19933;-53
2022/01/30 10:07:01;;;;;;;;;;;8.00;99.90;;;;;;5035791;28;19925;-52
2022/01/30 10:09:30;;;;;;;;;;;8.10;99.90;;;;;;5051038;28;20394;-52
2022/01/30 10:12:12;;;;;;;;;;;8.10;99.90;;;;;;5055728;28;19925;-52
2022/01/30 10:14:52;;;;;;;;;;;8.00;99.90;;;;;;5054503;28;19932;-52
2022/01/30 10:17:37;;;;;;;;;;;7.90;99.90;;;;;;5035548;28;19926;-52
2022/01/30 10:20:08;;;;;;;;;;;8.00;99.90;;;;;;5047966;28;19928;-52
2022/01/30 10:22:37;;;;;;;;;;;8.00;99.90;;;;;;5053275;28;19928;-52
2022/01/30 10:25:04;;;;;;;;;;;7.90;99.90;;;;;;5044488;28;19929;-52
2022/01/30 10:27:33;;;;;;;;;;;7.90;99.90;;;;;;5035773;28;19979;-52
2022/01/30 10:30:00;;;;;;;;;;;7.80;99.90;;;;;;5035455;28;19925;-52
2022/01/30 10:32:28;;;;;;;;;;;7.90;99.90;;;;;;5035592;28;20346;-52
2022/01/30 10:34:58;;;;;;;;;;;7.80;99.90;;;;;;5036342;28;19987;-52
2022/01/30 10:37:25;;;;;;;;;;;7.70;99.90;;;;;;5043806;28;19925;-53
2022/01/30 10:40:06;;;;;;;;;;;7.60;99.90;;;;;;5050089;28;19928;-52
2022/01/30 10:42:39;;;;;;;;;;;7.70;99.90;;;;;;5052900;28;20023;-52
2022/01/30 10:45:06;;;;;;;;;;;7.90;99.90;;;;;;5036181;28;19971;-53
2022/01/30 10:47:35;;;;;;;;;;;7.90;99.90;;;;;;5041488;28;19929;-52
2022/01/30 10:50:02;;;;;;;;;;;7.90;99.90;;;;;;5054606;28;19933;-52
2022/01/30 10:52:31;;;;;;;;;;;7.80;99.90;;;;;;5054325;28;20216;-53
2022/01/30 10:55:05;;;;;;;;;;;7.90;99.90;;;;;;5040151;28;19925;-52
2022/01/30 10:57:39;;;;;;;;;;;8.00;99.90;;;;;;5049791;28;19925;-53
2022/01/30 11:00:07;;;;;;;;;;;8.10;99.90;;;;;;5036265;28;19929;-53
2022/01/30 11:02:37;;;;;;;;;;;8.30;99.90;;;;;;5047514;28;19971;-51
2022/01/30 11:05:07;;;;;;;;;;;8.40;99.90;;;;;;5053150;28;20386;-51
2022/01/30 11:07:35;;;;;;;;;;;8.40;99.90;;;;;;5053414;28;19947;-52
2022/01/30 11:10:07;;;;;;;;;;;8.40;99.90;;;;;;5048422;28;19948;-52
2022/01/30 11:12:42;;;;;;;;;;;8.60;99.90;;;;;;5049345;28;20012;-53
2022/01/30 11:15:22;;;;;;;;;;;8.80;99.90;;;;;;5037544;28;20119;-53
2022/01/30 11:17:50;;;;;;;;;;;8.90;99.90;;;;;;5035410;28;20012;-52
2022/01/30 11:20:17;;;;;;;;;;;8.90;99.90;;;;;;5037763;28;19936;-52
2022/01/30 11:22:46;;;;;;;;;;;9.00;99.90;;;;;;5049781;28;20397;-53
2022/01/30 11:25:13;;;;;;;;;;;9.10;99.90;;;;;;5054420;28;19929;-53
2022/01/30 11:27:43;;;;;;;;;;;8.90;99.90;;;;;;5054406;28;19970;-52
2022/01/30 11:30:10;;;;;;;;;;;8.90;99.90;;;;;;5053642;28;20004;-53
2022/01/30 11:32:37;;;;;;;;;;;8.90;99.90;;;;;;5054209;28;19931;-53
2022/01/30 11:35:04;;;;;;;;;;;8.90;99.90;;;;;;5054051;28;19928;-52
2022/01/30 11:37:32;;;;;;;;;;;8.90;99.90;;;;;;5053999;28;20363;-53
2022/01/30 11:40:00;;;;;;;;;;;8.90;99.90;;;;;;5052103;28;19984;-52
2022/01/30 11:42:27;;;;;;;;;;;9.00;99.90;;;;;;5054175;28;19995;-53
2022/01/30 11:45:09;;;;;;;;;;;8.90;99.90;;;;;;5052079;28;19975;-52
2022/01/30 11:47:45;;;;;;;;;;;8.90;99.90;;;;;;5053270;28;19929;-53
2022/01/30 11:50:12;;;;;;;;;;;8.90;99.90;;;;;;5041649;28;19933;-52
2022/01/30 11:52:50;;;;;;;;;;;9.10;99.90;;;;;;5051547;28;19937;-52
2022/01/30 11:55:35;;;;;;;;;;;9.20;99.90;;;;;;5045166;28;19925;-53
2022/01/30 11:58:02;;;;;;;;;;;9.30;99.90;;;;;;5051215;28;19929;-53
2022/01/30 12:00:37;;;;;;;;;;;9.30;99.90;;;;;;5052296;28;20375;-52
2022/01/30 12:03:27;;;;;;;;;;;9.30;99.90;;;;;;5052283;28;20268;-52
2022/01/30 12:05:55;;;;;;;;;;;9.50;99.90;;;;;;5052505;28;19947;-52
2022/01/30 12:08:49;;;;;;;;;;;9.40;99.90;;;;;;5048801;28;19924;-53
2022/01/30 12:11:34;;;;;;;;;;;9.40;99.90;;;;;;5017079;28;20280;-53
2022/01/30 12:14:01;;;;;;;;;;;9.50;99.90;;;;;;5051822;28;20559;-52
2022/01/30 12:16:43;;;;;;;;;;;9.50;99.90;;;;;;5052293;28;19925;-53
2022/01/30 12:19:12;;;;;;;;;;;9.50;99.90;;;;;;5051046;28;20019;-52
2022/01/30 12:21:39;;;;;;;;;;;9.60;99.90;;;;;;5052825;28;19947;-53
2022/01/30 12:24:21;;;;;;;;;;;9.70;99.90;;;;;;5052102;28;20386;-52
2022/01/30 12:26:51;;;;;;;;;;;9.90;99.90;;;;;;5052322;28;19978;-53
2022/01/30 12:29:33;;;;;;;;;;;10.00;99.90;;;;;;5047963;28;19925;-53
2022/01/30 12:32:15;;;;;;;;;;;10.30;99.90;;;;;;5049034;28;19925;-53
2022/01/30 12:34:43;;;;;;;;;;;10.10;99.90;;;;;;5053047;28;20033;-52
2022/01/30 12:37:10;;;;;;;;;;;9.90;99.90;;;;;;5053283;28;19925;-52
2022/01/30 12:39:36;;;;;;;;;;;9.80;99.90;;;;;;5052112;28;19924;-52
2022/01/30 12:42:03;;;;;;;;;;;9.70;99.90;;;;;;5058469;28;19947;-53
2022/01/30 12:44:31;;;;;;;;;;;9.50;99.90;;;;;;5064536;28;19925;-52
2022/01/30 12:46:58;;;;;;;;;;;9.60;99.90;;;;;;5059624;28;19968;-56
2022/01/30 12:49:27;;;;;;;;;;;9.50;99.90;;;;;;5055675;28;19925;-52
2022/01/30 12:51:56;;;;;;;;;;;9.40;99.90;;;;;;5051711;28;20405;-53
2022/01/30 12:54:24;;;;;;;;;;;9.50;99.90;;;;;;5051725;28;19964;-53
2022/01/30 12:56:52;;;;;;;;;;;9.50;99.90;;;;;;5051880;28;19933;-52
2022/01/30 12:59:19;;;;;;;;;;;9.40;99.90;;;;;;5047426;28;20357;-53
2022/01/30 13:01:46;;;;;;;;;;;9.20;99.90;;;;;;5045283;28;19979;-52
2022/01/30 13:04:14;;;;;;;;;;;9.20;99.90;;;;;;5049839;28;19928;-52
2022/01/30 13:06:41;;;;;;;;;;;9.20;99.90;;;;;;5051868;28;19929;-52
2022/01/30 13:09:10;;;;;;;;;;;9.30;99.90;;;;;;5055547;28;20468;-52
2022/01/30 13:11:37;;;;;;;;;;;9.70;99.90;;;;;;5051434;28;19951;-52
2022/01/30 13:14:05;;;;;;;;;;;9.90;99.90;;;;;;5054807;28;20314;-52
2022/01/30 13:16:37;;;;;;;;;;;9.90;99.90;;;;;;5054903;28;20016;-53
2022/01/30 13:19:05;;;;;;;;;;;9.80;99.90;;;;;;5055181;28;20375;-53
2022/01/30 13:21:32;;;;;;;;;;;9.90;99.90;;;;;;5055079;28;20338;-52
2022/01/30 13:24:00;;;;;;;;;;;9.90;99.90;;;;;;5055354;28;19929;-53
2022/01/30 13:26:44;;;;;;;;;;;9.90;99.90;;;;;;5054485;28;19933;-52
2022/01/30 13:29:20;;;;;;;;;;;9.90;99.90;;;;;;5051981;28;19928;-52
2022/01/30 13:31:49;;;;;;;;;;;10.20;99.90;;;;;;5053839;28;19925;-53
2022/01/30 13:34:21;;;;;;;;;;;10.40;99.90;;;;;;5051596;28;20413;-52
2022/01/30 13:36:54;;;;;;;;;;;10.70;99.90;;;;;;5053023;28;19980;-53
2022/01/30 13:39:26;;;;;;;;;;;10.80;99.90;;;;;;5052320;28;19925;-53
2022/01/30 13:42:03;;;;;;;;;;;10.80;99.90;;;;;;5050904;28;20032;-53
2022/01/30 13:44:49;;;;;;;;;;;10.90;99.90;;;;;;5053340;28;19967;-53
2022/01/30 13:47:18;;;;;;;;;;;11.10;99.90;;;;;;5053139;28;19929;-53
2022/01/30 13:49:49;;;;;;;;;;;11.20;99.90;;;;;;5055292;28;19925;-53
2022/01/30 13:52:16;;;;;;;;;;;11.00;99.90;;;;;;5055008;28;19936;-52
2022/01/30 13:54:43;;;;;;;;;;;11.00;99.90;;;;;;5054559;28;19935;-53
2022/01/30 13:57:12;;;;;;;;;;;10.80;99.90;;;;;;5054908;28;19929;-53
2022/01/30 13:59:38;;;;;;;;;;;10.60;99.90;;;;;;5053968;28;19979;-52
2022/01/30 14:02:07;;;;;;;;;;;10.40;99.90;;;;;;5053882;28;19975;-52
2022/01/30 14:04:35;;;;;;;;;;;10.20;99.90;;;;;;5054385;28;19937;-53
2022/01/30 14:07:01;;;;;;;;;;;10.00;99.90;;;;;;5054778;28;19929;-53
2022/01/30 14:09:38;;;;;;;;;;;9.80;99.90;;;;;;5049758;28;19971;-53
2022/01/30 14:12:06;;;;;;;;;;;9.60;99.90;;;;;;5053699;28;19931;-53
2022/01/30 14:14:36;;;;;;;;;;;9.40;99.90;;;;;;5054470;28;19925;-52
2022/01/30 14:17:04;;;;;;;;;;;9.30;99.90;;;;;;5054344;28;19931;-53
2022/01/30 14:19:40;;;;;;;;;;;9.30;99.90;;;;;;5054427;28;20031;-53
2022/01/30 14:22:15;;;;;;;;;;;9.30;99.90;;;;;;5053777;28;19925;-53
2022/01/30 14:24:48;;;;;;;;;;;9.30;99.90;;;;;;5054709;28;19984;-53
2022/01/30 14:27:15;;;;;;;;;;;9.20;99.90;;;;;;5055368;28;19929;-52
2022/01/30 14:29:42;;;;;;;;;;;9.10;99.90;;;;;;5053097;28;19931;-56
2022/01/30 14:32:10;;;;;;;;;;;9.10;99.90;;;;;;5053948;28;19970;-52
2022/01/30 14:34:39;;;;;;;;;;;9.10;99.90;;;;;;5054823;28;19925;-52
2022/01/30 14:37:08;;;;;;;;;;;9.10;99.90;;;;;;5053428;28;19925;-53
2022/01/30 14:39:35;;;;;;;;;;;9.10;99.90;;;;;;5041730;28;19936;-52
2022/01/30 14:42:03;;;;;;;;;;;9.10;99.90;;;;;;5053822;28;20341;-52
2022/01/30 14:44:30;;;;;;;;;;;9.10;99.90;;;;;;5052894;28;20464;-52
2022/01/30 14:46:57;;;;;;;;;;;9.00;99.90;;;;;;5053737;28;19944;-53
2022/01/30 14:49:24;;;;;;;;;;;9.10;99.90;;;;;;5041895;28;20506;-53
2022/01/30 14:51:52;;;;;;;;;;;9.10;99.90;;;;;;5054979;28;19928;-52
2022/01/30 14:54:20;;;;;;;;;;;8.90;99.90;;;;;;5053914;28;19925;-52
2022/01/30 14:56:47;;;;;;;;;;;8.70;99.90;;;;;;5054340;28;19924;-53
2022/01/30 14:59:14;;;;;;;;;;;8.70;99.90;;;;;;5053912;28;19928;-53
2022/01/30 15:01:40;;;;;;;;;;;8.70;99.90;;;;;;5053729;28;19925;-53
2022/01/30 15:04:08;;;;;;;;;;;8.70;99.90;;;;;;5050208;28;19970;-52
2022/01/30 15:06:35;;;;;;;;;;;8.60;99.90;;;;;;5054405;28;19929;-52
2022/01/30 15:09:06;;;;;;;;;;;8.60;99.90;;;;;;5053446;28;20445;-53
2022/01/30 15:11:33;;;;;;;;;;;8.60;99.90;;;;;;5053596;28;19986;-52